Time;durP1;ratioP1;P1;durP2;ratioP2;P2;SDS_P1;SDS_P2;PMS_P1;PMS_P2;Temp;Humidity;BMP_temperature;BMP_pressure;BME280_temperature;BME280_humidity;BME280_pressure;Samples;Min_cycle;Max_cycle;Signal;HPM_P1;HPM_P2
2021/12/23 00:00:12;;;;;;;1.23;1.20;;;-4.10;98.00;;;;;;5072074;28;20207;-67
2021/12/23 00:02:39;;;;;;;5.10;3.05;;;-4.10;98.00;;;;;;5072125;28;20254;-67
2021/12/23 00:05:08;;;;;;;3.08;2.85;;;-4.10;98.00;;;;;;5070500;28;20230;-67
2021/12/23 00:07:35;;;;;;;1.10;1.00;;;-4.10;98.00;;;;;;5072073;28;20238;-67
2021/12/23 00:10:06;;;;;;;2.08;1.92;;;-4.20;98.00;;;;;;5072403;28;20624;-67
2021/12/23 00:12:34;;;;;;;1.10;1.00;;;-4.10;98.00;;;;;;5072364;28;20234;-67
2021/12/23 00:15:09;;;;;;;1.20;1.13;;;-4.20;98.00;;;;;;5072015;28;20620;-67
2021/12/23 00:26:03;;;;;;;1.73;1.65;;;-4.60;98.00;;;;;;5046717;28;20227;-67
2021/12/23 00:28:31;;;;;;;2.05;1.90;;;-4.60;98.00;;;;;;5070425;28;20201;-67
2021/12/23 00:31:01;;;;;;;3.72;2.08;;;-4.60;98.00;;;;;;5071642;28;20306;-67
2021/12/23 00:33:29;;;;;;;1.98;1.35;;;-4.60;98.00;;;;;;5071661;28;20234;-67
2021/12/23 00:35:56;;;;;;;3.15;2.55;;;-4.60;98.00;;;;;;5071516;28;20217;-67
2021/12/23 00:38:28;;;;;;;2.05;1.50;;;-4.70;98.00;;;;;;5071676;28;20230;-67
2021/12/23 00:40:57;;;;;;;1.75;1.38;;;-4.70;98.00;;;;;;5071746;28;20986;-67
2021/12/23 00:43:24;;;;;;;2.20;1.55;;;-4.50;98.00;;;;;;5069576;28;20680;-67
2021/12/23 00:45:53;;;;;;;1.20;1.10;;;-4.50;98.00;;;;;;5071032;28;20269;-67
2021/12/23 00:48:22;;;;;;;1.13;1.05;;;-4.60;98.00;;;;;;5071312;28;20244;-67
2021/12/23 00:50:49;;;;;;;1.10;1.10;;;-4.60;98.00;;;;;;5071741;28;20304;-67
2021/12/23 00:53:19;;;;;;;1.40;1.30;;;-4.60;98.00;;;;;;5071456;28;20210;-67
2021/12/23 00:55:49;;;;;;;3.35;2.28;;;-4.60;98.00;;;;;;5074621;28;20234;-67
2021/12/23 00:58:16;;;;;;;2.38;2.17;;;-4.70;98.00;;;;;;5075608;28;20217;-67
2021/12/23 01:00:44;;;;;;;1.95;1.45;;;-4.60;98.00;;;;;;5075442;28;20213;-67
2021/12/23 01:03:12;;;;;;;2.05;1.58;;;-4.50;98.00;;;;;;5075527;28;20237;-67
2021/12/23 01:05:41;;;;;;;1.95;1.83;;;-4.50;98.00;;;;;;5075389;28;20218;-67
2021/12/23 01:08:09;;;;;;;1.73;1.63;;;-4.50;98.00;;;;;;5075162;28;20264;-67
2021/12/23 01:10:37;;;;;;;3.00;1.85;;;-4.50;98.00;;;;;;5073886;28;20511;-67
2021/12/23 01:13:06;;;;;;;1.20;1.13;;;-4.60;98.00;;;;;;5074100;28;20249;-67
2021/12/23 01:18:21;;;;;;;1.20;1.10;;;-4.70;98.00;;;;;;5066632;28;20198;-67
2021/12/23 01:21:02;;;;;;;2.00;1.75;;;-4.70;98.00;;;;;;5073985;28;20645;-67
2021/12/23 01:23:31;;;;;;;1.17;1.10;;;-4.90;98.00;;;;;;5073898;28;20604;-67
2021/12/23 01:25:58;;;;;;;3.38;2.72;;;-5.00;98.00;;;;;;5073816;28;20234;-67
2021/12/23 01:28:27;;;;;;;3.45;2.17;;;-5.00;98.00;;;;;;5073848;28;20634;-67
2021/12/23 01:30:54;;;;;;;1.33;1.30;;;-5.10;98.00;;;;;;5073666;28;20207;-67
2021/12/23 01:33:22;;;;;;;1.50;1.45;;;-5.10;98.00;;;;;;5073856;28;20290;-67
2021/12/23 01:35:50;;;;;;;3.85;2.67;;;-5.00;98.00;;;;;;5073740;28;20203;-67
2021/12/23 01:38:18;;;;;;;1.25;1.23;;;-5.00;98.00;;;;;;5073651;28;20209;-67
2021/12/23 01:40:46;;;;;;;1.10;1.10;;;-5.00;98.00;;;;;;5073667;28;20238;-67
2021/12/23 01:43:13;;;;;;;1.20;1.10;;;-5.10;98.00;;;;;;5073806;28;20212;-67
2021/12/23 01:45:45;;;;;;;2.22;2.10;;;-5.00;98.00;;;;;;5073534;28;20269;-67
2021/12/23 01:48:13;;;;;;;4.10;2.90;;;-4.90;98.00;;;;;;5073846;28;20266;-67
2021/12/23 01:50:40;;;;;;;1.83;1.77;;;-4.90;98.00;;;;;;5073165;28;20241;-67
2021/12/23 01:53:09;;;;;;;4.90;1.90;;;-4.70;98.00;;;;;;5073318;28;20295;-67
2021/12/23 01:55:38;;;;;;;1.55;1.45;;;-4.70;98.00;;;;;;5073265;28;20260;-67
2021/12/23 01:58:06;;;;;;;1.25;1.23;;;-4.50;98.00;;;;;;5073467;28;20207;-67
2021/12/23 02:00:37;;;;;;;1.48;1.27;;;-4.30;98.00;;;;;;5073015;28;20249;-67
2021/12/23 02:03:05;;;;;;;3.58;3.38;;;-4.20;98.00;;;;;;5073239;28;20288;-67
2021/12/23 02:05:33;;;;;;;5.88;4.07;;;-4.10;98.00;;;;;;5072576;28;20311;-67
2021/12/23 02:08:01;;;;;;;1.20;1.20;;;-4.10;98.00;;;;;;5033054;28;1139543;-67
2021/12/23 02:10:30;;;;;;;1.55;1.23;;;-4.10;98.00;;;;;;5072875;28;20286;-67
2021/12/23 02:12:58;;;;;;;1.77;1.67;;;-4.20;98.00;;;;;;5074169;28;20289;-67
2021/12/23 02:15:25;;;;;;;1.73;1.63;;;-4.30;98.00;;;;;;5074414;28;20637;-67
2021/12/23 02:17:53;;;;;;;2.08;2.00;;;-4.30;98.00;;;;;;5074275;28;20612;-67
2021/12/23 02:20:24;;;;;;;1.20;1.13;;;-4.50;98.00;;;;;;5074119;28;20234;-67
2021/12/23 02:22:53;;;;;;;3.75;2.05;;;-4.50;98.00;;;;;;5074240;28;20238;-67
2021/12/23 02:25:20;;;;;;;1.42;1.33;;;-4.50;98.00;;;;;;5073949;28;20235;-67
2021/12/23 02:27:49;;;;;;;1.40;1.30;;;-4.40;98.00;;;;;;5073857;28;20245;-66
2021/12/23 02:30:22;;;;;;;1.50;1.25;;;-4.50;98.00;;;;;;5072288;28;20211;-67
2021/12/23 02:32:49;;;;;;;6.78;2.10;;;-4.60;98.00;;;;;;5073886;28;20203;-67
2021/12/23 02:35:20;;;;;;;2.17;1.80;;;-4.60;98.00;;;;;;5073693;28;20379;-66
2021/12/23 02:37:48;;;;;;;1.40;1.40;;;-4.50;98.00;;;;;;5073815;28;20234;-67
2021/12/23 02:40:25;;;;;;;2.38;2.17;;;-4.60;98.00;;;;;;5073149;28;20209;-67
2021/12/23 02:42:52;;;;;;;1.15;1.10;;;-4.70;98.00;;;;;;5073353;28;20202;-67
2021/12/23 02:45:19;;;;;;;3.25;3.05;;;-4.70;98.00;;;;;;5073860;28;20261;-67
2021/12/23 02:47:46;;;;;;;1.20;1.10;;;-4.50;98.00;;;;;;5073564;28;20245;-67
2021/12/23 02:50:14;;;;;;;1.73;1.67;;;-4.50;98.00;;;;;;5073438;28;20210;-67
2021/12/23 02:52:42;;;;;;;1.10;1.00;;;-4.40;98.00;;;;;;5073441;28;20240;-67
2021/12/23 02:55:10;;;;;;;2.60;1.33;;;-4.50;98.00;;;;;;5073327;28;20762;-67
2021/12/23 02:57:37;;;;;;;1.40;1.30;;;-4.50;98.00;;;;;;5072392;28;20232;-67
2021/12/23 03:00:08;;;;;;;3.20;3.00;;;-4.60;98.00;;;;;;5073286;28;20234;-67
2021/12/23 03:02:38;;;;;;;1.88;1.83;;;-4.50;98.00;;;;;;5073446;28;20282;-67
2021/12/23 03:05:06;;;;;;;2.13;1.88;;;-4.50;98.00;;;;;;5073085;28;20225;-67
2021/12/23 03:07:34;;;;;;;1.67;1.55;;;-4.50;98.00;;;;;;5073494;28;20242;-67
2021/12/23 03:10:02;;;;;;;1.50;1.35;;;-4.50;98.00;;;;;;5072979;28;20214;-67
2021/12/23 03:12:30;;;;;;;1.55;1.48;;;-4.40;98.00;;;;;;5073202;28;20257;-67
2021/12/23 03:14:57;;;;;;;1.20;1.15;;;-4.40;98.00;;;;;;5072805;28;20771;-67
2021/12/23 03:17:24;;;;;;;1.10;1.10;;;-4.40;98.00;;;;;;5072081;28;20198;-66
2021/12/23 03:19:51;;;;;;;1.10;1.00;;;-4.50;98.00;;;;;;5073201;28;20628;-67
2021/12/23 03:22:18;;;;;;;2.47;1.42;;;-4.50;98.00;;;;;;5072968;28;20289;-67
2021/12/23 03:24:45;;;;;;;1.20;1.20;;;-4.50;98.00;;;;;;5072390;28;20214;-67
2021/12/23 03:27:14;;;;;;;2.78;2.58;;;-4.60;98.00;;;;;;5072724;28;20253;-67
2021/12/23 03:29:46;;;;;;;2.28;1.80;;;-4.50;98.00;;;;;;5071314;28;20199;-67
2021/12/23 03:32:13;;;;;;;1.83;1.60;;;-4.40;98.00;;;;;;5072490;28;20209;-67
2021/12/23 03:34:40;;;;;;;2.95;1.77;;;-4.40;98.00;;;;;;5072453;28;20665;-67
2021/12/23 03:37:08;;;;;;;2.47;1.65;;;-4.20;98.00;;;;;;5072555;28;20242;-66
2021/12/23 03:39:35;;;;;;;1.98;1.90;;;-4.20;98.00;;;;;;5072543;28;20290;-66
2021/12/23 03:42:02;;;;;;;3.20;2.65;;;-4.20;98.00;;;;;;5072317;28;20285;-67
2021/12/23 03:44:29;;;;;;;1.83;1.30;;;-4.30;98.00;;;;;;5072426;28;20238;-67
2021/12/23 03:46:58;;;;;;;1.45;1.38;;;-4.30;98.00;;;;;;5072220;28;20317;-67
2021/12/23 03:49:28;;;;;;;1.95;1.48;;;-4.30;98.00;;;;;;5071534;28;20319;-67
2021/12/23 03:51:55;;;;;;;3.15;2.95;;;-4.50;98.00;;;;;;5071497;28;20209;-67
2021/12/23 03:54:23;;;;;;;1.98;1.85;;;-4.50;98.00;;;;;;5071918;28;20245;-67
2021/12/23 03:56:50;;;;;;;2.15;1.80;;;-4.50;98.00;;;;;;5072132;28;20198;-67
2021/12/23 03:59:17;;;;;;;1.52;1.45;;;-4.50;98.00;;;;;;5072162;28;20297;-67
2021/12/23 04:01:44;;;;;;;1.20;1.20;;;-4.40;98.00;;;;;;5070978;28;20713;-67
2021/12/23 04:04:13;;;;;;;1.17;1.08;;;-4.30;98.00;;;;;;5072104;28;20273;-67
2021/12/23 04:06:40;;;;;;;2.00;1.60;;;-4.30;98.00;;;;;;5072062;28;20261;-67
2021/12/23 04:09:07;;;;;;;1.55;1.30;;;-4.40;98.00;;;;;;5071791;28;20290;-67
2021/12/23 04:11:34;;;;;;;1.40;1.35;;;-4.40;98.00;;;;;;5072114;28;20234;-67
2021/12/23 04:14:01;;;;;;;2.85;1.83;;;-4.40;98.00;;;;;;5072120;28;20248;-67
2021/12/23 04:16:28;;;;;;;3.58;3.15;;;-4.40;98.00;;;;;;5071979;28;20311;-67
2021/12/23 04:18:56;;;;;;;3.25;1.60;;;-4.50;98.00;;;;;;5072419;28;20631;-67
2021/12/23 04:21:25;;;;;;;1.20;1.15;;;-4.50;98.00;;;;;;5072072;28;20207;-67
2021/12/23 04:23:52;;;;;;;1.33;1.27;;;-4.50;98.00;;;;;;5071177;28;20215;-67
2021/12/23 04:26:19;;;;;;;2.38;2.20;;;-4.40;98.00;;;;;;5071713;28;20233;-67
2021/12/23 04:28:47;;;;;;;5.30;1.63;;;-4.40;98.00;;;;;;5071495;28;20199;-66
2021/12/23 04:31:18;;;;;;;2.33;1.98;;;-4.40;98.00;;;;;;5071362;28;20213;-66
2021/12/23 04:33:47;;;;;;;1.30;1.30;;;-4.30;98.00;;;;;;5072230;28;20730;-67
2021/12/23 04:36:14;;;;;;;1.15;1.08;;;-4.40;98.00;;;;;;5072210;28;20253;-67
2021/12/23 04:38:44;;;;;;;1.10;1.10;;;-4.40;98.00;;;;;;5072099;28;20349;-66
2021/12/23 04:41:11;;;;;;;2.05;1.95;;;-4.50;98.00;;;;;;5071755;28;20294;-66
2021/12/23 04:43:40;;;;;;;1.20;1.20;;;-4.50;98.00;;;;;;5071438;28;20620;-67
2021/12/23 04:46:07;;;;;;;1.45;1.45;;;-4.50;98.00;;;;;;5071657;28;20630;-67
2021/12/23 04:48:34;;;;;;;1.30;1.25;;;-4.40;98.00;;;;;;5071662;28;20212;-66
2021/12/23 04:51:02;;;;;;;1.70;1.67;;;-4.60;98.00;;;;;;5070105;28;20289;-66
2021/12/23 04:53:29;;;;;;;4.45;3.45;;;-4.60;98.00;;;;;;5071371;28;20292;-66
2021/12/23 04:55:57;;;;;;;4.18;2.30;;;-4.60;98.00;;;;;;5071291;28;20724;-66
2021/12/23 04:58:25;;;;;;;1.90;1.75;;;-4.40;98.00;;;;;;5071414;28;20293;-67
2021/12/23 05:00:52;;;;;;;1.10;1.10;;;-4.10;98.00;;;;;;5071322;28;20241;-66
2021/12/23 05:03:21;;;;;;;1.30;1.27;;;-4.00;98.00;;;;;;5071369;28;20696;-67
2021/12/23 05:05:48;;;;;;;1.10;1.02;;;-3.90;98.00;;;;;;5071360;28;20258;-66
2021/12/23 05:08:16;;;;;;;2.20;2.00;;;-3.90;98.00;;;;;;5071164;28;20246;-66
2021/12/23 05:10:43;;;;;;;1.42;1.30;;;-3.90;98.00;;;;;;5071165;28;20190;-67
2021/12/23 05:13:12;;;;;;;1.40;1.30;;;-3.80;98.00;;;;;;5070066;28;20234;-67
2021/12/23 05:15:39;;;;;;;1.50;1.48;;;-3.80;98.00;;;;;;5071217;28;20237;-66
2021/12/23 05:18:07;;;;;;;1.20;1.17;;;-3.70;98.00;;;;;;5071357;28;20217;-66
2021/12/23 05:20:34;;;;;;;1.40;1.30;;;-3.70;98.00;;;;;;5071419;28;20199;-67
2021/12/23 05:23:01;;;;;;;1.20;1.10;;;-3.80;98.00;;;;;;5071276;28;20255;-66
2021/12/23 05:25:29;;;;;;;1.10;1.00;;;-4.00;98.00;;;;;;5070139;28;20252;-66
2021/12/23 05:27:57;;;;;;;1.10;1.05;;;-3.90;98.00;;;;;;5071182;28;20199;-67
2021/12/23 05:30:27;;;;;;;2.20;1.73;;;-4.00;98.00;;;;;;5071150;28;20206;-67
2021/12/23 05:32:54;;;;;;;1.20;1.20;;;-3.90;98.00;;;;;;5071456;28;20295;-67
2021/12/23 05:35:21;;;;;;;1.40;1.40;;;-3.70;98.00;;;;;;5071184;28;20726;-67
2021/12/23 05:37:49;;;;;;;1.10;1.00;;;-3.60;98.00;;;;;;5071262;28;20291;-67
2021/12/23 05:40:18;;;;;;;3.05;2.00;;;-3.60;98.00;;;;;;5071562;28;20199;-66
2021/12/23 05:42:46;;;;;;;1.85;1.40;;;-3.80;98.00;;;;;;5074972;28;20693;-66
2021/12/23 05:45:15;;;;;;;1.10;1.00;;;-3.80;98.00;;;;;;5074762;28;20210;-67
2021/12/23 05:47:44;;;;;;;2.13;2.00;;;-3.80;98.00;;;;;;5074607;28;20626;-67
2021/12/23 05:50:12;;;;;;;3.30;2.20;;;-4.10;98.00;;;;;;5074385;28;20222;-67
2021/12/23 05:52:42;;;;;;;1.10;1.00;;;-4.40;98.00;;;;;;5074621;28;20229;-66
2021/12/23 05:55:12;;;;;;;1.40;1.30;;;-4.50;98.00;;;;;;5074577;28;20207;-67
2021/12/23 05:57:39;;;;;;;1.48;1.45;;;-4.50;98.00;;;;;;5074646;28;20198;-67
2021/12/23 06:00:10;;;;;;;1.20;1.10;;;-4.40;98.00;;;;;;5074965;28;20206;-67
2021/12/23 06:02:38;;;;;;;7.25;3.33;;;-4.40;98.00;;;;;;5074602;28;20238;-67
2021/12/23 06:05:07;;;;;;;1.80;1.70;;;-4.40;98.00;;;;;;5074599;28;20211;-67
2021/12/23 06:07:35;;;;;;;1.40;1.30;;;-4.40;98.00;;;;;;5074258;28;20303;-66
2021/12/23 06:10:01;;;;;;;2.85;2.67;;;-4.40;98.00;;;;;;5072894;28;20290;-67
2021/12/23 06:12:28;;;;;;;1.63;1.52;;;-4.40;98.00;;;;;;5074234;28;20264;-66
2021/12/23 06:14:55;;;;;;;1.67;1.58;;;-4.50;98.00;;;;;;5074152;28;20615;-66
2021/12/23 06:17:22;;;;;;;2.58;1.85;;;-4.70;98.00;;;;;;5073915;28;20578;-66
2021/12/23 06:19:50;;;;;;;1.20;1.20;;;-4.60;98.00;;;;;;5074239;28;20249;-67
2021/12/23 06:22:19;;;;;;;1.45;1.42;;;-4.40;98.00;;;;;;5073753;28;20264;-66
2021/12/23 06:24:47;;;;;;;1.83;1.77;;;-4.40;98.00;;;;;;5073736;28;20207;-66
2021/12/23 06:27:14;;;;;;;1.83;1.63;;;-4.40;98.00;;;;;;5074361;28;20225;-67
2021/12/23 06:29:41;;;;;;;3.35;1.48;;;-4.40;98.00;;;;;;5073742;28;20242;-67
2021/12/23 06:32:09;;;;;;;1.10;1.00;;;-4.60;98.00;;;;;;5074188;28;20654;-66
2021/12/23 06:34:36;;;;;;;1.30;1.25;;;-4.70;98.00;;;;;;5073514;28;20222;-67
2021/12/23 06:37:04;;;;;;;3.15;2.20;;;-4.70;98.00;;;;;;5073691;28;20230;-67
2021/12/23 06:39:33;;;;;;;1.98;1.80;;;-4.70;98.00;;;;;;5073567;28;20238;-66
2021/12/23 06:42:00;;;;;;;1.55;1.50;;;-4.70;98.00;;;;;;5073655;28;20304;-67
2021/12/23 06:44:27;;;;;;;2.58;2.13;;;-4.70;98.00;;;;;;5073417;28;20383;-66
2021/12/23 06:47:02;;;;;;;2.65;1.83;;;-4.50;98.00;;;;;;5073600;28;20280;-67
2021/12/23 06:49:31;;;;;;;1.20;1.20;;;-4.50;98.00;;;;;;5073555;28;20244;-67
2021/12/23 06:51:59;;;;;;;2.88;2.67;;;-4.50;98.00;;;;;;5072271;28;20242;-67
2021/12/23 06:54:27;;;;;;;10.48;2.38;;;-4.60;98.00;;;;;;5073301;28;20206;-67
2021/12/23 06:56:55;;;;;;;1.20;1.20;;;-4.50;98.00;;;;;;5073477;28;20241;-67
2021/12/23 06:59:22;;;;;;;1.65;1.55;;;-4.40;98.00;;;;;;5073369;28;20202;-66
2021/12/23 07:01:50;;;;;;;1.63;1.52;;;-4.50;98.00;;;;;;5072295;28;20203;-67
2021/12/23 07:04:20;;;;;;;2.20;2.03;;;-4.50;98.00;;;;;;5073171;28;20260;-67
2021/12/23 07:06:56;;;;;;;2.55;1.55;;;-4.50;98.00;;;;;;5073333;28;20309;-67
2021/12/23 07:09:23;;;;;;;2.13;1.85;;;-4.50;98.00;;;;;;5073023;28;20202;-67
2021/12/23 07:11:51;;;;;;;1.95;1.50;;;-4.50;98.00;;;;;;5073243;28;20209;-67
2021/12/23 07:14:20;;;;;;;9.88;1.95;;;-4.60;98.00;;;;;;5073060;28;20242;-67
2021/12/23 07:16:47;;;;;;;1.45;1.30;;;-4.60;98.00;;;;;;5073189;28;20576;-67
2021/12/23 07:19:14;;;;;;;1.73;1.40;;;-4.50;98.00;;;;;;5073158;28;20201;-67
2021/12/23 07:21:44;;;;;;;1.45;1.35;;;-4.40;98.00;;;;;;5073011;28;20234;-67
2021/12/23 07:24:11;;;;;;;2.42;2.30;;;-4.30;98.00;;;;;;5073488;28;20211;-67
2021/12/23 07:26:38;;;;;;;1.27;1.25;;;-4.30;98.00;;;;;;5072940;28;20671;-67
2021/12/23 07:29:05;;;;;;;1.55;1.45;;;-4.20;98.00;;;;;;5072746;28;20195;-67
2021/12/23 07:31:33;;;;;;;1.83;1.73;;;-4.30;98.00;;;;;;5073104;28;20242;-67
2021/12/23 07:34:01;;;;;;;2.45;2.25;;;-4.10;98.00;;;;;;5072436;28;20207;-66
2021/12/23 07:36:28;;;;;;;1.88;1.67;;;-3.90;98.00;;;;;;5072464;28;20198;-67
2021/12/23 07:38:57;;;;;;;2.08;1.65;;;-3.90;98.00;;;;;;5072771;28;20210;-67
2021/12/23 07:41:27;;;;;;;1.10;1.10;;;-3.70;98.00;;;;;;5072022;28;20663;-67
2021/12/23 07:44:00;;;;;;;1.20;1.20;;;-3.70;98.00;;;;;;5072572;28;20242;-67
2021/12/23 07:46:28;;;;;;;1.10;1.00;;;-3.50;98.00;;;;;;5072301;28;20227;-67
2021/12/23 07:48:57;;;;;;;1.10;1.10;;;-3.60;98.00;;;;;;5072526;28;20203;-68
2021/12/23 07:51:28;;;;;;;1.58;1.50;;;-3.60;98.00;;;;;;5072260;28;20206;-68
2021/12/23 07:53:56;;;;;;;1.10;1.00;;;-3.50;98.00;;;;;;5070959;28;20548;-67
2021/12/23 07:56:24;;;;;;;1.33;1.33;;;-3.50;98.00;;;;;;5072180;28;20237;-67
2021/12/23 07:58:51;;;;;;;1.50;1.40;;;-3.30;98.00;;;;;;5071823;28;20295;-67
2021/12/23 08:01:18;;;;;;;1.70;1.60;;;-3.20;98.00;;;;;;5071945;28;20245;-67
2021/12/23 08:03:45;;;;;;;1.85;1.42;;;-3.00;98.00;;;;;;5071755;28;20264;-67
2021/12/23 08:06:14;;;;;;;1.30;1.30;;;-2.90;98.00;;;;;;5071554;28;20239;-67
2021/12/23 08:08:44;;;;;;;1.77;1.50;;;-2.90;98.00;;;;;;5071694;28;20668;-68
2021/12/23 08:11:11;;;;;;;1.50;1.35;;;-3.10;98.00;;;;;;5067863;28;20622;-69
2021/12/23 08:13:38;;;;;;;1.40;1.30;;;-3.20;98.00;;;;;;5069584;28;20279;-67
2021/12/23 08:16:06;;;;;;;2.47;1.52;;;-3.40;98.00;;;;;;5069345;28;20294;-67
2021/12/23 08:18:33;;;;;;;1.52;1.45;;;-3.30;98.00;;;;;;5068154;28;20238;-66
2021/12/23 08:21:01;;;;;;;1.83;1.73;;;-3.20;98.00;;;;;;5068971;28;20222;-67
2021/12/23 08:23:29;;;;;;;1.10;1.00;;;-3.20;98.00;;;;;;5068768;28;20210;-67
2021/12/23 08:25:59;;;;;;;2.88;2.45;;;-2.30;98.00;;;;;;5069032;28;20199;-67
2021/12/23 08:28:26;;;;;;;1.33;1.20;;;-1.60;98.00;;;;;;5069586;28;20231;-66
2021/12/23 08:30:53;;;;;;;1.20;1.20;;;-0.80;98.00;;;;;;5069331;28;20297;-67
2021/12/23 08:33:20;;;;;;;2.60;1.37;;;0.60;98.00;;;;;;5069296;28;20200;-68
2021/12/23 08:35:49;;;;;;;1.60;1.50;;;2.00;98.00;;;;;;5068846;28;20451;-68
2021/12/23 08:38:16;;;;;;;1.40;1.30;;;2.10;98.00;;;;;;5068545;28;20942;-68
2021/12/23 08:40:44;;;;;;;2.80;2.20;;;2.00;98.00;;;;;;5068002;28;21026;-68
2021/12/23 08:43:13;;;;;;;8.20;2.33;;;1.40;98.00;;;;;;5068949;28;20551;-68
2021/12/23 08:45:41;;;;;;;2.33;1.60;;;0.90;98.00;;;;;;5068684;28;21013;-68
2021/12/23 08:48:08;;;;;;;2.20;2.03;;;0.40;98.00;;;;;;5068886;28;21044;-68
2021/12/23 08:50:36;;;;;;;2.47;1.90;;;-0.20;98.00;;;;;;5065480;28;21002;-68
2021/12/23 08:53:03;;;;;;;2.57;2.00;;;-0.40;98.00;;;;;;5068807;28;20450;-68
2021/12/23 08:55:31;;;;;;;19.07;1.73;;;-0.60;98.00;;;;;;5068832;28;20491;-68
2021/12/23 08:58:03;;;;;;;5.83;1.97;;;-0.80;98.00;;;;;;5068731;28;20517;-68
2021/12/23 09:00:32;;;;;;;3.20;1.90;;;-0.80;98.00;;;;;;5068779;28;20453;-68
2021/12/23 09:02:59;;;;;;;1.53;1.53;;;-1.10;98.00;;;;;;5066503;28;20485;-69
2021/12/23 09:05:26;;;;;;;1.33;1.33;;;-1.30;98.00;;;;;;5068403;28;20501;-68
2021/12/23 09:07:53;;;;;;;2.57;1.90;;;-1.30;98.00;;;;;;5068532;28;20524;-68
2021/12/23 09:10:21;;;;;;;3.57;1.93;;;-1.30;98.00;;;;;;5068835;28;20547;-68
2021/12/23 09:12:49;;;;;;;1.48;1.40;;;-1.30;98.00;;;;;;5068397;28;20455;-69
2021/12/23 09:15:19;;;;;;;2.93;2.70;;;-1.40;98.00;;;;;;5069189;28;20289;-70
2021/12/23 09:17:47;;;;;;;1.98;1.88;;;-1.50;98.00;;;;;;5072299;28;20620;-69
2021/12/23 09:20:15;;;;;;;1.50;1.30;;;-1.50;98.00;;;;;;5072337;28;20228;-69
2021/12/23 09:22:43;;;;;;;1.63;1.37;;;-1.50;98.00;;;;;;5072018;28;20203;-70
2021/12/23 09:25:22;;;;;;;1.55;1.50;;;-1.40;98.00;;;;;;5070788;28;20951;-69
2021/12/23 09:27:59;;;;;;;1.80;1.52;;;-1.10;98.00;;;;;;5072319;28;20284;-70
2021/12/23 09:33:12;;;;;;;1.10;1.10;;;-0.50;98.00;;;;;;5064450;28;20202;-70
2021/12/23 09:35:41;;;;;;;1.87;1.40;;;-0.50;98.00;;;;;;5071991;28;20195;-70
2021/12/23 09:38:09;;;;;;;3.93;1.83;;;-0.50;98.00;;;;;;5071155;28;20501;-70
2021/12/23 09:40:37;;;;;;;1.73;1.70;;;-0.70;98.00;;;;;;5071763;28;20549;-70
2021/12/23 09:43:06;;;;;;;1.13;1.07;;;-0.70;98.00;;;;;;5072039;28;20488;-70
2021/12/23 09:45:35;;;;;;;1.20;1.20;;;-0.60;98.00;;;;;;5071864;28;20894;-69
2021/12/23 09:48:03;;;;;;;2.05;1.75;;;-0.60;98.00;;;;;;5071866;28;20274;-69
2021/12/23 09:50:32;;;;;;;1.30;1.20;;;-0.50;98.00;;;;;;5069503;28;20682;-70
2021/12/23 09:53:03;;;;;;;2.67;2.10;;;0.70;98.00;;;;;;5070636;28;20487;-69
2021/12/23 09:55:31;;;;;;;2.50;1.97;;;2.20;98.00;;;;;;5071716;28;20455;-69
2021/12/23 09:57:59;;;;;;;2.80;1.77;;;2.30;98.00;;;;;;5070792;28;20517;-71
2021/12/23 10:00:29;;;;;;;1.33;1.23;;;2.10;98.00;;;;;;5071785;28;20510;-67
2021/12/23 10:02:59;;;;;;;5.03;2.33;;;1.80;98.00;;;;;;5071316;28;20468;-69
2021/12/23 10:05:32;;;;;;;3.30;1.73;;;1.30;98.00;;;;;;5071667;28;20453;-72
2021/12/23 10:08:01;;;;;;;1.80;1.70;;;1.10;98.00;;;;;;5071475;28;20624;-69
2021/12/23 10:10:34;;;;;;;2.07;1.73;;;0.80;98.00;;;;;;5071978;28;20467;-70
2021/12/23 10:27:46;;;;;;;1.40;1.27;;;0.40;98.00;;;;;;5070820;28;20520;-69
2021/12/23 10:30:20;;;;;;;2.27;1.87;;;0.60;98.00;;;;;;5071014;28;21032;-70
2021/12/23 10:33:26;;;;;;;6.10;3.13;;;0.60;98.00;;;;;;5071079;28;20473;-69
2021/12/23 10:38:51;;;;;;;1.40;1.30;;;0.60;98.00;;;;;;5064410;28;20457;-70
2021/12/23 10:41:21;;;;;;;1.40;1.33;;;0.50;98.00;;;;;;5070837;28;20498;-70
2021/12/23 10:43:52;;;;;;;1.57;1.57;;;0.40;98.00;;;;;;5070928;28;20464;-69
2021/12/23 10:46:24;;;;;;;1.87;1.87;;;0.40;98.00;;;;;;5070310;28;20521;-69
2021/12/23 10:49:03;;;;;;;2.60;2.03;;;0.50;98.00;;;;;;5070188;28;20573;-70
2021/12/23 10:51:58;;;;;;;2.23;2.03;;;0.50;98.00;;;;;;5068022;28;20538;-70
2021/12/23 11:00:20;;;;;;;1.37;1.33;;;0.70;98.00;;;;;;5070302;28;20457;-70
2021/12/23 11:03:00;;;;;;;1.10;1.10;;;0.90;98.00;;;;;;5070112;28;20483;-69
2021/12/23 11:05:32;;;;;;;1.87;1.50;;;0.90;98.00;;;;;;5069826;28;20486;-68
2021/12/23 11:08:12;;;;;;;1.13;1.13;;;1.00;98.00;;;;;;5069692;28;20514;-68
2021/12/23 11:11:01;;;;;;;2.17;1.97;;;1.10;98.00;;;;;;5069873;28;20463;-70
2021/12/23 11:27:54;;;;;;;2.53;1.27;;;1.20;98.00;;;;;;5028242;28;20467;-70
2021/12/23 11:36:16;;;;;;;2.07;1.70;;;1.30;98.00;;;;;;5070936;28;20811;-70
2021/12/23 11:39:05;;;;;;;1.20;1.10;;;1.30;98.00;;;;;;5070836;28;20559;-70
2021/12/23 11:41:38;;;;;;;1.57;1.47;;;1.30;98.00;;;;;;5070802;28;20817;-70
2021/12/23 11:44:07;;;;;;;10.43;3.83;;;1.50;98.00;;;;;;5070640;28;20539;-70
2021/12/23 11:46:42;;;;;;;2.27;1.63;;;1.60;98.00;;;;;;5062831;28;20475;-71
2021/12/23 11:49:12;;;;;;;1.70;1.43;;;1.70;98.00;;;;;;5069560;28;20503;-70
2021/12/23 11:51:51;;;;;;;11.20;1.83;;;1.60;98.00;;;;;;5069003;28;20515;-69
2021/12/23 11:54:21;;;;;;;1.30;1.27;;;1.60;98.00;;;;;;5070545;28;20458;-70
2021/12/23 11:56:52;;;;;;;2.70;2.33;;;1.80;98.00;;;;;;5070302;28;20939;-69
2021/12/23 11:59:19;;;;;;;1.47;1.43;;;1.90;98.00;;;;;;5070206;28;20985;-70
2021/12/23 12:01:49;;;;;;;1.80;1.23;;;1.90;98.00;;;;;;5070244;28;20456;-70
2021/12/23 12:04:24;;;;;;;1.30;1.20;;;2.10;98.00;;;;;;5070511;28;20890;-70
2021/12/23 12:06:53;;;;;;;2.13;1.40;;;2.30;98.00;;;;;;5070030;28;20552;-69
2021/12/23 12:09:26;;;;;;;3.20;2.50;;;2.40;98.00;;;;;;5069853;28;20829;-69
2021/12/23 12:12:11;;;;;;;1.67;1.20;;;2.40;98.00;;;;;;5069766;28;20463;-70
2021/12/23 12:14:51;;;;;;;1.30;1.20;;;2.50;98.00;;;;;;5069236;28;20469;-69
2021/12/23 12:17:38;;;;;;;1.70;1.40;;;2.50;98.00;;;;;;5069005;28;20744;-70
2021/12/23 12:20:12;;;;;;;1.37;1.33;;;2.70;98.00;;;;;;5069615;28;20460;-69
2021/12/23 12:22:52;;;;;;;3.60;1.90;;;2.70;98.00;;;;;;5069942;28;20460;-69
2021/12/23 12:25:59;;;;;;;1.47;1.20;;;2.80;98.00;;;;;;5070022;28;20557;-69
2021/12/23 12:28:37;;;;;;;2.27;1.77;;;2.80;98.00;;;;;;5057825;28;20859;-67
2021/12/23 12:31:06;;;;;;;2.73;1.83;;;2.80;98.00;;;;;;5061706;28;20880;-66
2021/12/23 12:33:56;;;;;;;1.23;1.10;;;2.80;98.00;;;;;;5069614;28;20832;-67
2021/12/23 12:36:25;;;;;;;1.60;1.40;;;2.90;98.00;;;;;;5069658;28;20472;-67
2021/12/23 12:38:57;;;;;;;1.67;1.43;;;3.10;98.00;;;;;;5069911;28;20456;-66
2021/12/23 12:41:30;;;;;;;2.27;1.50;;;3.10;98.00;;;;;;5069725;28;20881;-67
2021/12/23 12:44:09;;;;;;;2.27;1.63;;;3.10;98.00;;;;;;5069216;28;20913;-67
2021/12/23 12:46:54;;;;;;;1.80;1.57;;;3.00;98.00;;;;;;5068462;28;20459;-65
2021/12/23 12:49:26;;;;;;;3.00;2.40;;;3.00;98.00;;;;;;5067140;28;20500;-66
2021/12/23 12:51:55;;;;;;;4.20;2.20;;;3.00;98.00;;;;;;5073012;28;20453;-68
2021/12/23 12:54:32;;;;;;;1.20;1.00;;;2.90;98.00;;;;;;5072466;28;20457;-67
2021/12/23 12:57:01;;;;;;;1.20;1.10;;;3.10;98.00;;;;;;5064654;28;20456;-68
2021/12/23 12:59:31;;;;;;;1.33;1.27;;;3.20;98.00;;;;;;5064236;28;20464;-70
2021/12/23 13:02:00;;;;;;;6.37;1.90;;;3.20;98.00;;;;;;5072617;28;20449;-70
2021/12/23 13:04:30;;;;;;;3.00;1.70;;;3.20;98.00;;;;;;5072459;28;20452;-71
2021/12/23 13:07:00;;;;;;;1.70;1.50;;;3.30;98.00;;;;;;5072788;28;20536;-71
2021/12/23 13:09:31;;;;;;;2.23;2.00;;;3.20;98.00;;;;;;5072748;28;20595;-70
2021/12/23 13:12:00;;;;;;;4.00;1.67;;;3.10;98.00;;;;;;5072895;28;20514;-71
2021/12/23 13:14:51;;;;;;;1.73;1.53;;;2.90;98.00;;;;;;5072964;28;20522;-71
2021/12/23 13:17:24;;;;;;;1.10;1.00;;;2.90;98.00;;;;;;5072692;28;21007;-71
2021/12/23 13:19:52;;;;;;;1.20;1.10;;;2.80;98.00;;;;;;5072465;28;20467;-71
2021/12/23 13:22:23;;;;;;;2.13;1.97;;;2.90;98.00;;;;;;5072581;28;20540;-71
2021/12/23 13:24:55;;;;;;;4.77;1.90;;;3.00;98.00;;;;;;5072329;28;20463;-70
2021/12/23 13:27:25;;;;;;;4.97;1.70;;;3.00;98.00;;;;;;5072274;28;20968;-71
2021/12/23 13:30:03;;;;;;;1.77;1.67;;;2.90;98.00;;;;;;5071763;28;20488;-71
2021/12/23 13:32:30;;;;;;;1.20;1.10;;;2.90;98.00;;;;;;5069619;28;20521;-71
2021/12/23 13:35:07;;;;;;;3.77;2.57;;;3.00;98.00;;;;;;5070705;28;20518;-71
2021/12/23 13:37:35;;;;;;;1.50;1.37;;;3.00;98.00;;;;;;5072523;28;21055;-71
2021/12/23 13:40:03;;;;;;;1.50;1.37;;;3.10;98.00;;;;;;5072028;28;20460;-71
2021/12/23 13:42:30;;;;;;;1.60;1.10;;;3.10;98.00;;;;;;5071752;28;20468;-71
2021/12/23 13:44:59;;;;;;;3.47;1.70;;;3.10;98.00;;;;;;5072291;28;20456;-71
2021/12/23 13:47:26;;;;;;;1.63;1.50;;;3.00;98.00;;;;;;5072095;28;20485;-71
2021/12/23 13:49:55;;;;;;;4.10;1.93;;;3.10;98.00;;;;;;5069868;28;20492;-70
2021/12/23 13:52:25;;;;;;;6.50;2.27;;;3.20;98.00;;;;;;5072323;28;20492;-71
2021/12/23 13:54:55;;;;;;;1.40;1.40;;;3.30;98.00;;;;;;5072037;28;20489;-71
2021/12/23 13:57:24;;;;;;;1.40;1.37;;;3.40;98.00;;;;;;5071704;28;20483;-71
2021/12/23 13:59:53;;;;;;;2.63;2.00;;;3.40;98.00;;;;;;5072283;28;20496;-71